RJAZ(METAR)
12/11 16:00
RJAZ 110700Z 05013G32KT 6000 RA OVC010 11/09 Q1022 RMK A3020=
戻る
トップページへ戻る
IMOC Co,.Ltd.